Time;durP1;ratioP1;P1;durP2;ratioP2;P2;SDS_P1;SDS_P2;PMS_P1;PMS_P2;Temp;Humidity;BMP_temperature;BMP_pressure;BME280_temperature;BME280_humidity;BME280_pressure;Samples;Min_cycle;Max_cycle;Signal;HPM_P1;HPM_P2
2022/11/29 00:04:57;;;;;;;21.83;12.80;;;11.00;99.90;;;;;;10328866;28;20709;-89
2022/11/29 00:10:00;;;;;;;23.70;14.70;;;10.90;99.90;;;;;;10362111;28;20298;-88
2022/11/29 00:15:03;;;;;;;23.60;12.77;;;11.10;99.90;;;;;;10348032;28;20247;-88
2022/11/29 00:20:06;;;;;;;21.37;14.00;;;10.90;99.90;;;;;;10366747;28;20743;-89
2022/11/29 00:25:09;;;;;;;20.97;12.40;;;11.30;99.90;;;;;;10324558;28;20334;-88
2022/11/29 00:30:12;;;;;;;23.83;13.23;;;11.30;99.90;;;;;;10326198;28;20236;-88
2022/11/29 00:35:14;;;;;;;18.20;11.20;;;11.70;99.90;;;;;;10351192;28;20866;-88
2022/11/29 00:40:16;;;;;;;28.13;16.40;;;11.60;99.90;;;;;;10348835;28;20240;-89
2022/11/29 00:45:19;;;;;;;22.50;13.30;;;11.30;99.90;;;;;;10366524;28;20256;-89
2022/11/29 00:50:21;;;;;;;20.83;12.43;;;10.90;99.90;;;;;;10362406;28;20225;-89
2022/11/29 00:55:24;;;;;;;23.40;13.70;;;10.90;99.90;;;;;;10354185;28;20256;-88
2022/11/29 01:00:26;;;;;;;15.97;11.73;;;10.90;99.90;;;;;;10340938;28;20632;-88
2022/11/29 01:05:31;;;;;;;17.53;11.30;;;11.00;99.90;;;;;;10371452;28;20244;-88
2022/11/29 01:10:33;;;;;;;20.10;13.03;;;10.70;99.90;;;;;;10372468;28;20721;-87
2022/11/29 01:15:36;;;;;;;20.83;13.23;;;10.70;99.90;;;;;;10355294;28;20300;-89
2022/11/29 01:20:39;;;;;;;16.43;11.40;;;10.70;99.90;;;;;;10372840;28;20228;-90
2022/11/29 01:25:41;;;;;;;19.30;12.60;;;11.00;99.90;;;;;;10350310;28;20299;-88
2022/11/29 01:30:45;;;;;;;17.57;11.03;;;10.90;99.90;;;;;;10370643;28;20231;-89
2022/11/29 01:35:53;;;;;;;20.50;12.13;;;10.90;99.90;;;;;;10353962;28;20262;-89
2022/11/29 01:41:01;;;;;;;20.63;13.63;;;10.50;99.90;;;;;;10354339;28;20204;-90
2022/11/29 01:46:03;;;;;;;19.30;12.77;;;10.80;99.90;;;;;;10355589;28;20247;-89
2022/11/29 01:51:06;;;;;;;19.10;11.60;;;10.80;99.90;;;;;;10371050;28;20675;-88
2022/11/29 01:56:09;;;;;;;21.80;14.40;;;11.00;99.90;;;;;;10341066;28;20362;-89
2022/11/29 02:01:12;;;;;;;31.17;17.77;;;11.20;99.90;;;;;;10372397;28;20196;-89
2022/11/29 02:06:15;;;;;;;22.27;14.13;;;10.50;99.90;;;;;;10370125;28;20314;-89
2022/11/29 02:11:24;;;;;;;19.57;13.27;;;10.80;99.90;;;;;;10372018;28;20204;-90
2022/11/29 02:16:29;;;;;;;20.90;12.67;;;10.70;99.90;;;;;;10369482;28;20669;-89
2022/11/29 02:21:49;;;;;;;17.07;11.07;;;10.60;99.90;;;;;;10371031;28;20247;-88
2022/11/29 02:27:06;;;;;;;21.27;13.70;;;10.70;99.90;;;;;;10351931;28;20251;-89
2022/11/29 02:32:45;;;;;;;16.50;10.70;;;11.00;99.90;;;;;;10369768;28;20255;-89
2022/11/29 02:37:58;;;;;;;17.53;12.50;;;11.00;99.90;;;;;;10350204;28;20263;-89
2022/11/29 02:43:24;;;;;;;18.13;11.93;;;11.10;99.90;;;;;;10369314;28;20627;-89
2022/11/29 02:48:40;;;;;;;20.40;13.33;;;10.90;99.90;;;;;;10352238;28;20307;-89
2022/11/29 02:53:54;;;;;;;18.33;12.63;;;11.00;99.90;;;;;;10364187;28;20254;-87
2022/11/29 02:59:19;;;;;;;21.77;12.80;;;11.20;99.90;;;;;;10322595;28;20293;-90
2022/11/29 03:05:03;;;;;;;22.73;14.03;;;10.70;99.90;;;;;;10366891;28;20243;-88
2022/11/29 03:10:21;;;;;;;20.80;12.27;;;10.80;99.90;;;;;;10187234;29;20778;-88
2022/11/29 03:15:42;;;;;;;17.03;11.33;;;10.70;99.90;;;;;;10183213;29;20270;-88
2022/11/29 03:21:05;;;;;;;18.23;12.70;;;11.10;99.90;;;;;;10203287;29;20247;-89
2022/11/29 03:26:23;;;;;;;24.60;14.83;;;10.70;99.90;;;;;;10177642;29;20267;-88
2022/11/29 03:31:31;;;;;;;20.37;11.90;;;10.40;99.90;;;;;;10177661;29;20755;-89
2022/11/29 03:36:55;;;;;;;22.87;12.83;;;10.60;99.90;;;;;;10201040;29;20680;-89
2022/11/29 03:42:07;;;;;;;17.47;10.63;;;10.80;99.90;;;;;;10200893;29;20716;-89
2022/11/29 03:47:18;;;;;;;15.23;9.87;;;10.60;99.90;;;;;;10312740;28;20261;-88
2022/11/29 03:52:35;;;;;;;16.13;10.97;;;11.00;99.90;;;;;;10328637;28;20274;-89
2022/11/29 03:57:37;;;;;;;14.50;10.47;;;10.60;99.90;;;;;;10341118;28;20232;-88
2022/11/29 04:02:48;;;;;;;19.77;12.57;;;10.20;99.90;;;;;;10333097;28;20278;-90
2022/11/29 04:08:25;;;;;;;22.53;13.83;;;9.90;99.90;;;;;;10366654;28;20252;-88
2022/11/29 04:13:54;;;;;;;20.30;12.77;;;10.00;99.90;;;;;;10364994;28;20749;-88
2022/11/29 04:19:08;;;;;;;18.50;10.33;;;9.70;99.90;;;;;;10357246;28;20239;-89
2022/11/29 04:24:32;;;;;;;21.27;14.17;;;10.00;99.90;;;;;;10363056;28;20208;-88
2022/11/29 04:29:49;;;;;;;20.50;12.73;;;9.70;99.90;;;;;;10353695;28;20208;-89
2022/11/29 04:35:16;;;;;;;17.03;10.97;;;10.10;99.90;;;;;;10375302;28;20219;-89
2022/11/29 04:40:34;;;;;;;16.73;10.83;;;10.20;99.90;;;;;;10364618;28;20200;-89
2022/11/29 04:45:53;;;;;;;21.93;13.90;;;10.10;99.90;;;;;;10372477;28;20282;-88
2022/11/29 04:51:09;;;;;;;27.03;17.63;;;9.80;99.90;;;;;;10351297;28;20694;-89
2022/11/29 04:56:42;;;;;;;21.77;12.73;;;9.60;99.90;;;;;;10350021;28;20263;-89
2022/11/29 05:01:57;;;;;;;19.43;12.63;;;9.90;99.90;;;;;;10363744;28;20286;-87
2022/11/29 05:07:10;;;;;;;18.90;11.23;;;10.10;99.90;;;;;;10328845;28;20267;-89
2022/11/29 05:12:32;;;;;;;20.63;12.67;;;10.50;99.90;;;;;;10334414;28;20301;-88
2022/11/29 05:17:53;;;;;;;21.20;14.03;;;10.10;99.90;;;;;;10329306;28;20747;-88
2022/11/29 05:23:14;;;;;;;18.57;12.00;;;10.30;99.90;;;;;;10348841;28;20742;-89
2022/11/29 05:28:57;;;;;;;23.47;15.33;;;10.30;99.90;;;;;;10326000;28;20276;-89
2022/11/29 05:34:18;;;;;;;14.23;9.77;;;10.00;99.90;;;;;;10330849;28;20239;-89
2022/11/29 05:39:53;;;;;;;25.37;15.80;;;10.10;99.90;;;;;;10326714;28;20266;-88
2022/11/29 05:45:20;;;;;;;25.73;13.80;;;10.10;99.90;;;;;;10350780;28;20279;-88
2022/11/29 05:50:34;;;;;;;16.03;10.03;;;10.10;99.90;;;;;;10352658;28;20224;-87
2022/11/29 05:55:47;;;;;;;27.30;16.63;;;10.70;99.90;;;;;;10353083;28;20304;-88
2022/11/29 06:01:19;;;;;;;44.07;26.53;;;10.40;99.90;;;;;;10368381;28;20243;-87
2022/11/29 06:06:34;;;;;;;20.83;11.03;;;7.80;95.70;;;;;;10371210;28;20251;-87
2022/11/29 06:11:51;;;;;;;33.87;19.90;;;7.20;99.90;;;;;;10348579;28;20233;-88
2022/11/29 06:17:24;;;;;;;29.73;17.60;;;8.90;99.90;;;;;;10332668;28;20617;-89
2022/11/29 06:22:55;;;;;;;31.90;18.37;;;9.30;99.90;;;;;;10331421;28;20224;-88
2022/11/29 06:28:14;;;;;;;33.90;19.10;;;9.80;99.90;;;;;;10347248;28;20712;-88
2022/11/29 06:33:29;;;;;;;30.47;17.63;;;9.90;97.70;;;;;;10330628;28;20224;-88
2022/11/29 06:38:32;;;;;;;31.33;18.33;;;10.00;99.90;;;;;;10340169;28;20290;-88
2022/11/29 06:43:35;;;;;;;27.90;18.50;;;10.10;99.90;;;;;;10331682;28;20240;-88
2022/11/29 06:48:47;;;;;;;25.50;14.60;;;10.50;99.90;;;;;;10327141;28;20252;-88
2022/11/29 06:54:30;;;;;;;25.70;15.13;;;10.60;99.90;;;;;;10316801;28;20282;-88
2022/11/29 07:00:03;;;;;;;27.43;18.10;;;10.90;99.90;;;;;;10218147;29;20253;-88
2022/11/29 07:05:06;;;;;;;28.27;15.17;;;11.00;99.90;;;;;;10229067;29;20242;-88
2022/11/29 07:10:16;;;;;;;26.27;16.47;;;11.10;99.90;;;;;;10229593;29;20762;-89
2022/11/29 07:15:21;;;;;;;29.73;17.20;;;11.10;99.40;;;;;;10188080;29;20254;-89
2022/11/29 07:20:57;;;;;;;28.90;19.10;;;10.90;98.70;;;;;;10203626;29;20282;-88
2022/11/29 07:26:15;;;;;;;31.33;17.93;;;10.70;97.70;;;;;;10197340;29;20366;-88
2022/11/29 07:31:48;;;;;;;29.63;16.10;;;10.70;98.90;;;;;;10227748;29;20690;-89
2022/11/29 07:36:56;;;;;;;23.77;16.60;;;10.70;99.90;;;;;;10333222;28;20244;-88
2022/11/29 07:42:11;;;;;;;27.47;15.70;;;10.80;99.30;;;;;;10327688;28;20232;-88
2022/11/29 07:47:13;;;;;;;23.40;15.57;;;10.60;99.00;;;;;;10327486;28;20717;-88
2022/11/29 07:52:16;;;;;;;23.73;15.00;;;11.20;99.90;;;;;;10316091;28;20244;-88
2022/11/29 07:57:18;;;;;;;28.50;17.60;;;11.10;99.90;;;;;;10367264;28;20268;-88
2022/11/29 08:02:28;;;;;;;33.60;20.67;;;11.10;98.90;;;;;;10348681;28;20204;-88
2022/11/29 08:07:34;;;;;;;29.17;17.27;;;11.00;96.40;;;;;;10362964;28;20247;-88
2022/11/29 08:12:42;;;;;;;29.53;18.00;;;11.20;99.90;;;;;;10357580;28;20228;-88
2022/11/29 08:17:45;;;;;;;31.97;19.73;;;10.90;98.10;;;;;;10312401;28;20302;-89
2022/11/29 08:22:56;;;;;;;27.93;17.87;;;10.80;99.60;;;;;;10335232;28;20236;-89
2022/11/29 08:27:59;;;;;;;27.20;14.60;;;10.70;99.10;;;;;;10330153;28;20321;-88
2022/11/29 08:33:02;;;;;;;22.20;12.67;;;10.90;99.90;;;;;;10350502;28;20687;-88
2022/11/29 08:38:04;;;;;;;38.57;21.67;;;11.30;99.90;;;;;;10333881;28;20267;-88
2022/11/29 08:43:07;;;;;;;25.47;16.70;;;11.10;97.00;;;;;;10347068;28;20232;-88
2022/11/29 08:48:09;;;;;;;28.20;18.93;;;11.10;99.60;;;;;;10326090;28;20326;-88
2022/11/29 08:58:32;;;;;;;25.47;15.23;;;10.50;99.10;;;;;;10322862;28;20299;-89
2022/11/29 09:08:57;;;;;;;26.80;15.27;;;11.00;99.90;;;;;;10360509;28;20255;-88
2022/11/29 09:14:03;;;;;;;30.67;17.67;;;11.50;99.90;;;;;;10361865;28;20239;-89
2022/11/29 09:19:06;;;;;;;97.00;47.00;;;12.00;99.90;;;;;;10339703;28;20232;-89
2022/11/29 09:24:09;;;;;;;27.07;14.50;;;11.80;96.70;;;;;;10373767;28;20656;-88
2022/11/29 09:29:12;;;;;;;37.30;22.10;;;11.60;99.90;;;;;;10355689;28;20253;-89
2022/11/29 09:34:17;;;;;;;31.23;19.20;;;11.20;97.90;;;;;;10337107;28;20200;-89
2022/11/29 09:39:19;;;;;;;18.33;11.70;;;11.30;99.90;;;;;;10328122;28;20217;-88
2022/11/29 09:44:59;;;;;;;28.33;16.43;;;11.60;99.90;;;;;;10321879;28;20255;-89
2022/11/29 09:50:20;;;;;;;63.40;33.80;;;11.20;99.70;;;;;;10339812;28;20252;-89
2022/11/29 09:55:31;;;;;;;61.67;34.23;;;11.30;98.00;;;;;;10342006;28;20737;-89
2022/11/29 10:00:41;;;;;;;31.40;18.67;;;10.80;97.50;;;;;;10322241;28;20236;-89
2022/11/29 10:05:49;;;;;;;35.27;20.53;;;10.40;99.90;;;;;;10333350;28;20237;-89
2022/11/29 10:11:00;;;;;;;25.97;15.10;;;10.40;99.90;;;;;;10314070;28;20333;-89
2022/11/29 10:16:14;;;;;;;33.27;20.83;;;10.60;99.90;;;;;;10354180;28;20628;-89
2022/11/29 10:21:24;;;;;;;32.73;18.63;;;10.10;99.90;;;;;;10348761;28;20233;-89
2022/11/29 10:26:26;;;;;;;24.90;14.87;;;10.50;99.90;;;;;;10327016;28;20256;-89
2022/11/29 10:31:41;;;;;;;14.40;10.03;;;10.30;99.90;;;;;;10318144;28;20224;-89
2022/11/29 10:36:47;;;;;;;35.23;17.57;;;10.20;99.90;;;;;;10325104;28;20200;-89
2022/11/29 10:41:54;;;;;;;34.43;22.37;;;10.60;99.90;;;;;;10344770;28;20301;-89
2022/11/29 10:46:59;;;;;;;24.67;13.80;;;11.00;96.20;;;;;;10328420;28;20252;-90
2022/11/29 10:52:01;;;;;;;28.27;16.60;;;11.00;99.90;;;;;;10330707;28;20224;-89
2022/11/29 10:57:13;;;;;;;34.67;22.17;;;11.10;99.90;;;;;;10342392;28;20688;-90
2022/11/29 11:02:18;;;;;;;42.67;25.30;;;10.30;98.80;;;;;;10333313;28;20709;-90
2022/11/29 11:07:34;;;;;;;34.53;21.50;;;9.80;95.10;;;;;;10328754;28;20268;-90
2022/11/29 11:12:36;;;;;;;31.50;20.20;;;9.20;99.90;;;;;;10323508;28;20228;-90
2022/11/29 11:17:41;;;;;;;30.23;17.50;;;9.50;99.90;;;;;;10324360;28;20324;-90
2022/11/29 11:22:43;;;;;;;36.37;20.60;;;8.90;99.90;;;;;;10341145;28;20267;-89
2022/11/29 11:27:46;;;;;;;29.43;17.47;;;9.30;99.90;;;;;;10333796;28;20256;-89
2022/11/29 11:33:20;;;;;;;28.43;18.53;;;9.50;99.90;;;;;;10332579;28;20263;-90
2022/11/29 11:38:23;;;;;;;26.47;16.73;;;9.50;99.90;;;;;;10312467;28;20225;-90
2022/11/29 11:43:25;;;;;;;37.63;22.33;;;9.60;99.90;;;;;;10343249;28;20648;-89
2022/11/29 11:48:28;;;;;;;38.53;21.97;;;9.30;99.60;;;;;;10326394;28;20260;-89
2022/11/29 11:53:36;;;;;;;37.47;22.13;;;9.10;99.90;;;;;;10342884;28;20232;-89
2022/11/29 11:58:48;;;;;;;28.57;15.73;;;8.90;99.90;;;;;;10342580;28;20693;-89
2022/11/29 12:04:10;;;;;;;39.13;24.27;;;9.60;99.90;;;;;;10337718;28;20208;-88
2022/11/29 12:09:27;;;;;;;31.80;18.07;;;9.60;99.90;;;;;;10342253;28;20282;-89
2022/11/29 12:14:55;;;;;;;29.47;18.07;;;9.50;99.90;;;;;;10344793;28;20258;-90
2022/11/29 12:20:23;;;;;;;30.63;18.50;;;9.20;99.90;;;;;;10334005;28;20232;-89
2022/11/29 12:25:32;;;;;;;43.57;26.43;;;9.50;99.90;;;;;;10332310;28;20682;-90
2022/11/29 12:30:36;;;;;;;26.53;16.67;;;9.70;99.10;;;;;;10326537;28;20656;-89
2022/11/29 12:35:57;;;;;;;34.40;21.27;;;9.90;99.90;;;;;;10340590;28;20193;-89
2022/11/29 12:41:36;;;;;;;31.43;18.27;;;10.00;99.90;;;;;;10346695;28;20243;-90
2022/11/29 12:46:41;;;;;;;49.60;29.17;;;9.60;99.60;;;;;;10346065;28;20705;-89
2022/11/29 12:52:00;;;;;;;22.17;15.73;;;9.60;96.60;;;;;;10350284;28;20287;-90
2022/11/29 12:57:35;;;;;;;54.67;27.50;;;9.50;99.90;;;;;;10337277;28;21027;-89
2022/11/29 13:03:15;;;;;;;70.17;31.73;;;9.20;99.90;;;;;;10362282;28;20602;-89
2022/11/29 13:08:42;;;;;;;32.93;20.47;;;10.10;99.90;;;;;;10355031;28;20252;-89
2022/11/29 13:14:00;;;;;;;66.30;32.10;;;10.20;99.90;;;;;;10358155;28;20289;-90
2022/11/29 13:19:45;;;;;;;32.93;19.03;;;10.30;99.90;;;;;;10329704;28;20302;-89
2022/11/29 13:25:01;;;;;;;53.80;34.27;;;9.90;99.90;;;;;;10331140;28;20236;-90
2022/11/29 13:30:05;;;;;;;50.20;30.17;;;9.90;98.20;;;;;;10346449;28;20716;-90
2022/11/29 13:35:36;;;;;;;45.47;27.63;;;9.40;99.90;;;;;;10352728;28;20232;-90
2022/11/29 13:41:22;;;;;;;29.03;18.60;;;9.30;99.90;;;;;;10348936;28;20270;-89
2022/11/29 13:46:29;;;;;;;32.67;22.20;;;9.40;99.90;;;;;;10325716;28;20279;-89
2022/11/29 13:51:36;;;;;;;24.77;15.50;;;9.20;99.90;;;;;;10356865;28;20760;-90
2022/11/29 13:56:46;;;;;;;24.30;15.17;;;9.60;99.90;;;;;;10335181;28;20317;-88
2022/11/29 14:01:52;;;;;;;36.63;21.77;;;10.50;99.90;;;;;;10334737;28;20231;-90
2022/11/29 14:07:17;;;;;;;52.93;36.57;;;10.50;99.90;;;;;;10333502;28;20248;-89
2022/11/29 14:12:48;;;;;;;27.27;18.63;;;10.30;95.00;;;;;;10352590;28;20204;-89
2022/11/29 14:17:50;;;;;;;30.33;19.90;;;10.30;99.90;;;;;;10341446;28;20196;-90
2022/11/29 14:23:05;;;;;;;29.17;17.83;;;10.40;99.90;;;;;;10325834;28;20233;-90
2022/11/29 14:28:14;;;;;;;50.27;25.67;;;10.70;99.80;;;;;;10330836;28;20311;-89
2022/11/29 14:33:25;;;;;;;34.93;21.83;;;10.00;99.90;;;;;;10345280;28;20298;-90
2022/11/29 14:38:42;;;;;;;39.27;23.27;;;10.10;99.90;;;;;;10370707;28;20322;-90
2022/11/29 14:43:45;;;;;;;25.13;15.13;;;10.30;98.10;;;;;;10313337;28;20244;-90
2022/11/29 14:48:59;;;;;;;44.27;25.17;;;10.30;99.90;;;;;;10350863;28;20228;-89
2022/11/29 14:54:18;;;;;;;43.87;27.50;;;10.50;99.90;;;;;;10351313;28;20232;-89
2022/11/29 14:59:42;;;;;;;51.43;29.17;;;10.90;95.20;;;;;;10351996;28;20208;-89
2022/11/29 15:04:46;;;;;;;50.17;28.73;;;10.10;92.70;;;;;;10352576;28;20246;-89
2022/11/29 15:09:49;;;;;;;53.57;31.13;;;10.20;94.80;;;;;;10351977;28;20275;-89
2022/11/29 15:15:08;;;;;;;43.80;27.03;;;9.60;93.80;;;;;;10369510;28;20297;-89
2022/11/29 15:20:21;;;;;;;44.63;25.13;;;9.60;93.10;;;;;;10369605;28;20235;-89
2022/11/29 15:25:27;;;;;;;48.13;28.50;;;9.70;96.00;;;;;;10335558;28;20620;-89
2022/11/29 15:30:38;;;;;;;47.33;29.40;;;9.20;98.30;;;;;;10362761;28;20658;-88
2022/11/29 15:35:48;;;;;;;43.87;28.37;;;9.90;93.70;;;;;;10368495;28;20283;-89
2022/11/29 15:40:53;;;;;;;38.63;24.40;;;9.10;96.10;;;;;;10369119;28;20278;-89
2022/11/29 15:45:57;;;;;;;41.77;24.27;;;9.10;98.50;;;;;;10351165;28;20769;-88
2022/11/29 15:51:18;;;;;;;48.30;28.03;;;8.90;99.90;;;;;;10350989;28;20267;-87
2022/11/29 15:56:55;;;;;;;41.13;24.70;;;9.30;99.90;;;;;;10351060;28;20338;-88
2022/11/29 16:02:02;;;;;;;51.17;29.27;;;9.50;99.90;;;;;;10320279;28;20306;-90
2022/11/29 16:07:05;;;;;;;50.37;27.53;;;9.80;96.60;;;;;;10369090;28;20297;-89
2022/11/29 16:12:12;;;;;;;39.97;25.00;;;9.70;94.40;;;;;;10350470;28;20251;-88
2022/11/29 16:17:15;;;;;;;49.67;27.77;;;9.50;98.50;;;;;;10350646;28;20300;-90
2022/11/29 16:22:22;;;;;;;54.13;32.30;;;8.90;97.20;;;;;;10370288;28;20189;-86
2022/11/29 16:27:25;;;;;;;52.40;32.17;;;9.10;99.90;;;;;;10357895;28;20704;-86
2022/11/29 16:32:34;;;;;;;54.83;29.63;;;8.80;96.30;;;;;;10376681;28;20193;-86
2022/11/29 16:37:40;;;;;;;35.80;21.43;;;8.80;99.90;;;;;;10350712;28;20225;-87
2022/11/29 16:42:47;;;;;;;40.77;24.67;;;9.10;99.90;;;;;;10367684;28;20673;-86
2022/11/29 16:47:56;;;;;;;45.27;27.07;;;8.80;99.00;;;;;;10342913;28;20224;-86
2022/11/29 16:53:37;;;;;;;57.47;34.70;;;9.10;98.20;;;;;;10376337;28;20192;-86
2022/11/29 16:58:41;;;;;;;47.37;26.70;;;8.80;99.40;;;;;;10361004;28;20628;-85
2022/11/29 17:04:04;;;;;;;40.73;23.70;;;8.70;99.50;;;;;;10316280;28;20306;-86
2022/11/29 17:09:13;;;;;;;38.07;22.33;;;8.60;99.90;;;;;;10352903;28;20279;-86
2022/11/29 17:14:16;;;;;;;39.50;24.67;;;8.20;99.90;;;;;;10324980;28;20197;-86
2022/11/29 17:19:20;;;;;;;55.67;31.70;;;9.00;99.90;;;;;;10339014;28;20697;-86
2022/11/29 17:24:25;;;;;;;34.90;19.90;;;9.10;96.10;;;;;;10372938;28;20637;-86
2022/11/29 17:29:27;;;;;;;46.97;26.30;;;8.90;99.90;;;;;;10363301;28;20248;-86
2022/11/29 17:34:30;;;;;;;38.03;23.13;;;9.00;98.60;;;;;;10350250;28;20314;-86
2022/11/29 17:39:32;;;;;;;32.43;19.93;;;9.40;99.90;;;;;;10337288;28;20220;-86
2022/11/29 17:44:35;;;;;;;36.43;21.47;;;9.50;99.90;;;;;;10351427;28;20298;-86
2022/11/29 17:49:37;;;;;;;39.50;23.70;;;9.50;99.90;;;;;;10348500;28;20253;-86
2022/11/29 17:54:40;;;;;;;40.97;22.13;;;9.30;99.90;;;;;;10339925;28;20314;-86
2022/11/29 17:59:43;;;;;;;40.73;22.43;;;9.80;99.90;;;;;;10373323;28;20208;-86
2022/11/29 18:04:46;;;;;;;31.43;17.93;;;9.80;99.90;;;;;;10338680;28;20208;-84
2022/11/29 18:09:49;;;;;;;37.23;20.53;;;10.30;99.90;;;;;;10372320;28;20255;-86
2022/11/29 18:14:52;;;;;;;47.53;27.10;;;10.30;99.90;;;;;;10371861;28;20306;-86
2022/11/29 18:19:54;;;;;;;52.03;30.20;;;10.80;91.30;;;;;;10372043;28;20737;-86
2022/11/29 18:24:56;;;;;;;52.57;29.43;;;10.30;88.70;;;;;;10356683;28;20252;-86
2022/11/29 18:30:19;;;;;;;48.00;27.53;;;10.10;90.90;;;;;;10364290;28;20287;-86
2022/11/29 18:35:21;;;;;;;44.10;26.70;;;10.10;91.20;;;;;;10331122;28;20237;-86
2022/11/29 18:40:24;;;;;;;48.53;28.80;;;10.20;91.50;;;;;;10330613;28;20307;-86
2022/11/29 18:45:26;;;;;;;43.77;25.23;;;10.00;90.50;;;;;;10313147;28;20220;-86
2022/11/29 18:50:30;;;;;;;45.50;27.50;;;10.10;92.70;;;;;;10332125;28;20703;-85
2022/11/29 18:55:36;;;;;;;51.17;29.17;;;9.80;92.00;;;;;;10312856;28;20311;-86
2022/11/29 19:00:39;;;;;;;49.03;25.77;;;9.80;92.60;;;;;;10312196;28;20244;-86
2022/11/29 19:05:52;;;;;;;43.93;25.83;;;10.30;94.00;;;;;;10365259;28;20274;-86
2022/11/29 19:10:55;;;;;;;42.03;25.67;;;10.20;94.10;;;;;;10363012;28;20286;-86
2022/11/29 19:15:58;;;;;;;43.70;23.93;;;9.90;94.60;;;;;;10347863;28;20731;-86
2022/11/29 19:21:20;;;;;;;49.20;30.57;;;10.00;94.10;;;;;;10319147;28;20203;-86
2022/11/29 19:26:25;;;;;;;46.53;28.07;;;9.10;94.40;;;;;;10369317;28;20309;-86
2022/11/29 19:31:28;;;;;;;40.73;22.33;;;9.40;95.30;;;;;;10364309;28;20298;-86
2022/11/29 19:36:31;;;;;;;49.30;27.63;;;9.20;98.60;;;;;;10327869;28;20223;-86
2022/11/29 19:41:34;;;;;;;46.07;29.77;;;9.30;96.50;;;;;;10369108;28;20239;-86
2022/11/29 19:46:40;;;;;;;43.10;24.43;;;9.00;97.10;;;;;;10347817;28;20620;-86
2022/11/29 19:51:43;;;;;;;68.70;35.50;;;8.90;99.90;;;;;;10342026;28;20252;-86
2022/11/29 19:56:45;;;;;;;79.53;40.53;;;8.90;99.90;;;;;;10368575;28;20286;-86
2022/11/29 20:01:48;;;;;;;46.33;26.47;;;8.50;98.40;;;;;;10350751;28;20297;-86
2022/11/29 20:06:53;;;;;;;57.53;29.47;;;8.70;99.90;;;;;;10350632;28;20309;-86
2022/11/29 20:11:55;;;;;;;50.60;29.33;;;9.10;98.80;;;;;;10338442;28;20706;-86
2022/11/29 20:16:57;;;;;;;58.10;31.60;;;8.90;99.90;;;;;;10328414;28;20290;-87
2022/11/29 20:22:00;;;;;;;73.63;39.73;;;9.10;98.30;;;;;;10333574;28;20302;-86
2022/11/29 20:27:02;;;;;;;45.97;25.03;;;9.30;97.60;;;;;;10327949;28;20233;-86
2022/11/29 20:32:05;;;;;;;45.63;26.43;;;9.40;99.70;;;;;;10330223;28;20305;-86
2022/11/29 20:37:25;;;;;;;39.80;22.37;;;9.60;99.90;;;;;;10340354;28;20224;-85
2022/11/29 20:42:28;;;;;;;32.53;20.43;;;10.00;98.10;;;;;;10349279;28;20243;-86
2022/11/29 20:47:38;;;;;;;38.40;23.23;;;9.70;99.40;;;;;;10337871;28;20685;-86
2022/11/29 20:53:07;;;;;;;37.10;21.17;;;9.70;97.50;;;;;;10367051;28;20255;-85
2022/11/29 20:58:10;;;;;;;50.17;27.93;;;9.90;99.80;;;;;;10367163;28;20717;-86
2022/11/29 21:03:14;;;;;;;40.63;24.63;;;9.80;96.60;;;;;;10332908;28;20240;-86
2022/11/29 21:08:20;;;;;;;46.27;27.77;;;9.30;98.90;;;;;;10325234;28;20232;-86
2022/11/29 21:13:23;;;;;;;39.27;24.20;;;8.60;98.50;;;;;;10344703;28;20200;-86
2022/11/29 21:18:27;;;;;;;45.97;26.70;;;9.00;99.90;;;;;;10357415;28;20637;-86
2022/11/29 21:23:42;;;;;;;45.43;28.47;;;8.90;99.90;;;;;;10356691;28;20252;-86
2022/11/29 21:28:55;;;;;;;57.10;34.03;;;8.70;98.30;;;;;;10373907;28;20243;-86
2022/11/29 21:33:58;;;;;;;51.43;31.53;;;8.70;95.40;;;;;;10341144;28;20294;-86
2022/11/29 21:39:00;;;;;;;76.13;40.10;;;8.90;99.90;;;;;;10333045;28;20263;-86
2022/11/29 21:44:06;;;;;;;61.70;31.57;;;8.80;98.80;;;;;;10333177;28;20292;-86
2022/11/29 21:49:09;;;;;;;54.03;28.83;;;8.80;99.90;;;;;;10299212;28;20283;-86
2022/11/29 21:54:12;;;;;;;38.67;25.03;;;8.80;99.10;;;;;;10332639;28;20256;-85
2022/11/29 21:59:14;;;;;;;46.70;27.63;;;8.90;99.90;;;;;;10315119;28;20236;-85
2022/11/29 22:04:17;;;;;;;41.33;23.63;;;8.70;99.90;;;;;;10352258;28;20254;-86
2022/11/29 22:09:20;;;;;;;38.63;22.73;;;8.90;99.90;;;;;;10322889;28;20865;-85
2022/11/29 22:14:22;;;;;;;43.83;26.33;;;9.10;99.90;;;;;;10372636;28;20262;-86
2022/11/29 22:19:27;;;;;;;28.90;18.40;;;9.30;99.90;;;;;;10355361;28;20219;-86
2022/11/29 22:24:32;;;;;;;48.77;27.40;;;9.20;99.90;;;;;;10330821;28;20674;-86
2022/11/29 22:29:35;;;;;;;51.63;29.17;;;9.00;97.60;;;;;;10331676;28;20249;-86
2022/11/29 22:34:37;;;;;;;41.10;23.97;;;9.20;98.20;;;;;;10314602;28;20224;-86
2022/11/29 22:39:40;;;;;;;45.60;27.07;;;9.30;99.90;;;;;;10331289;28;20619;-86
2022/11/29 22:44:42;;;;;;;47.57;25.47;;;9.30;98.40;;;;;;10313437;28;20208;-86
2022/11/29 22:49:47;;;;;;;34.63;20.87;;;9.00;99.90;;;;;;10336096;28;20252;-86
2022/11/29 22:54:50;;;;;;;54.80;31.70;;;8.80;99.90;;;;;;10371387;28;20256;-86
2022/11/29 22:59:53;;;;;;;55.20;28.73;;;8.90;99.70;;;;;;10353821;28;20582;-86
2022/11/29 23:04:57;;;;;;;41.63;25.67;;;9.30;99.90;;;;;;10370838;28;20889;-86
2022/11/29 23:09:59;;;;;;;65.23;32.93;;;9.40;99.80;;;;;;10337018;28;20310;-86
2022/11/29 23:15:02;;;;;;;40.17;22.67;;;8.80;95.70;;;;;;10353106;28;20243;-86
2022/11/29 23:20:06;;;;;;;44.77;24.60;;;8.80;99.90;;;;;;10363014;28;20618;-87
2022/11/29 23:25:08;;;;;;;43.67;24.20;;;8.60;99.90;;;;;;10329691;28;20229;-86
2022/11/29 23:30:12;;;;;;;50.07;27.40;;;8.90;99.90;;;;;;10329234;28;20711;-86
2022/11/29 23:35:14;;;;;;;53.83;29.10;;;9.30;99.90;;;;;;10329069;28;20674;-86
2022/11/29 23:40:17;;;;;;;40.60;23.70;;;9.40;96.60;;;;;;10313700;28;20279;-86
2022/11/29 23:45:19;;;;;;;38.97;22.13;;;9.40;99.90;;;;;;10352030;28;20235;-87
2022/11/29 23:50:23;;;;;;;32.03;18.97;;;9.60;99.90;;;;;;10369552;28;20251;-86
2022/11/29 23:55:26;;;;;;;48.13;26.70;;;9.60;99.90;;;;;;10368665;28;20757;-86
